Terminal Aerodrome Forecast
Issued by NWS

Home | Current Version | Previous Version | Text Only | Print | Product List | Glossary On
Versions: 1 2 3 4 5 6 7 8 9 10 11 12 13 14
000
FTUS45 KTFX 021100
TAFBZN
TAF
KBZN 021120Z 0212/0312 14004KT P6SM SCT150
     FM021800 28007KT P6SM BKN100
     FM022300 30007KT P6SM VCSH SCT030 BKN060
     FM030200 35014G20KT 4SM -SN SCT010 BKN025
      TEMPO 0302/0306 1 1/2SM -SN BLSN OVC010=

USA.gov is the U.S. government's official web portal to all federal, state and local government web resources and services.